createdAt,value
2022-08-17T00:00:36.893Z,8.08
2022-08-17T00:01:25.574Z,8.06
2022-08-17T00:02:26.799Z,7.96
2022-08-17T00:03:23.471Z,8.21
2022-08-17T00:05:23.451Z,7.48
2022-08-17T00:06:23.473Z,8.84
2022-08-17T00:07:23.460Z,8.52
2022-08-17T00:08:23.463Z,8.66
2022-08-17T00:09:23.489Z,8.62
2022-08-17T00:10:23.479Z,8.42
2022-08-17T00:11:23.474Z,8.61
2022-08-17T00:12:40.985Z,8.49
2022-08-17T00:13:23.487Z,8.93
2022-08-17T00:14:23.465Z,8.29
2022-08-17T00:15:23.485Z,8.36
2022-08-17T00:16:55.440Z,7.78
2022-08-17T00:17:23.493Z,7.85
2022-08-17T00:19:01.433Z,8.45
2022-08-17T00:19:23.502Z,8.04
2022-08-17T00:22:31.864Z,8.02
2022-08-17T00:23:23.509Z,8.13
2022-08-17T00:24:23.521Z,8.87
2022-08-17T00:25:24.808Z,8.27
2022-08-17T00:26:43.999Z,7.36
2022-08-17T00:27:23.537Z,7.79
2022-08-17T00:28:24.908Z,6.99
2022-08-17T00:29:23.535Z,8.44
2022-08-17T00:30:23.542Z,7.67
2022-08-17T00:31:23.570Z,8.15
2022-08-17T00:33:15.709Z,7.16
2022-08-17T00:33:23.829Z,7.86
2022-08-17T00:34:23.562Z,7.04
2022-08-17T00:35:23.566Z,8.30
2022-08-17T00:36:23.547Z,7.23
2022-08-17T00:37:23.538Z,7.09
2022-08-17T00:39:23.713Z,7.84
2022-08-17T00:40:24.568Z,8.13
2022-08-17T00:41:23.570Z,6.88
2022-08-17T00:42:26.435Z,7.47
2022-08-17T00:43:23.649Z,8.14
2022-08-17T00:44:23.585Z,8.58
2022-08-17T00:45:23.563Z,8.04
2022-08-17T00:46:23.569Z,7.90
2022-08-17T00:47:23.561Z,7.63
2022-08-17T00:49:23.597Z,8.46
2022-08-17T00:50:23.607Z,7.80
2022-08-17T00:51:23.596Z,8.71
2022-08-17T00:52:23.604Z,8.24
2022-08-17T00:53:23.590Z,8.38
2022-08-17T00:54:23.598Z,8.34
2022-08-17T00:55:23.579Z,8.62
2022-08-17T00:56:23.607Z,8.58
2022-08-17T00:57:23.631Z,8.72
2022-08-17T00:58:28.688Z,8.70
2022-08-17T00:59:23.588Z,7.73
2022-08-17T01:00:23.612Z,8.70
2022-08-17T01:01:23.677Z,8.66
2022-08-17T01:02:23.607Z,8.67
2022-08-17T01:03:25.762Z,8.94
2022-08-17T01:04:23.607Z,8.33
2022-08-17T01:05:23.650Z,8.80
2022-08-17T01:07:23.620Z,8.50
2022-08-17T01:08:23.644Z,7.97
2022-08-17T01:09:23.647Z,8.68
2022-08-17T01:10:59.551Z,9.01
2022-08-17T01:11:23.615Z,8.95
2022-08-17T01:12:23.611Z,8.97
2022-08-17T01:14:23.623Z,9.09
2022-08-17T01:17:23.701Z,9.59
2022-08-17T01:18:23.637Z,9.91
2022-08-17T01:19:23.637Z,9.26
2022-08-17T01:20:23.658Z,8.60
2022-08-17T01:21:23.644Z,9.26
2022-08-17T01:22:23.648Z,9.40
2022-08-17T01:23:23.680Z,8.77
2022-08-17T01:24:23.693Z,8.96
2022-08-17T01:25:23.672Z,8.72
2022-08-17T01:27:23.677Z,8.57
2022-08-17T01:28:52.688Z,9.82
2022-08-17T01:29:23.674Z,9.32
2022-08-17T01:30:57.314Z,9.21
2022-08-17T01:32:23.683Z,8.19
2022-08-17T01:33:23.670Z,9.63
2022-08-17T01:34:23.689Z,8.87
2022-08-17T01:36:23.697Z,9.24
2022-08-17T01:37:23.735Z,8.73
2022-08-17T01:38:27.226Z,8.94
2022-08-17T01:41:23.707Z,7.54
2022-08-17T01:43:23.737Z,8.41
2022-08-17T01:44:23.728Z,8.30
2022-08-17T01:45:23.751Z,9.40
2022-08-17T01:46:23.740Z,9.24
2022-08-17T01:47:23.718Z,8.54
2022-08-17T01:48:23.726Z,8.87
2022-08-17T01:49:23.723Z,8.78
2022-08-17T01:50:23.733Z,8.62
2022-08-17T01:51:23.729Z,8.88
2022-08-17T01:52:23.757Z,9.40
2022-08-17T01:53:23.750Z,8.97
2022-08-17T01:54:23.751Z,8.50
2022-08-17T01:55:27.218Z,8.92
2022-08-17T01:56:23.739Z,8.57
2022-08-17T01:57:23.744Z,8.74
2022-08-17T01:58:23.761Z,7.95
2022-08-17T01:59:23.782Z,7.92
2022-08-17T02:00:23.767Z,8.00
2022-08-17T02:01:23.850Z,8.27
2022-08-17T02:02:30.888Z,7.58
2022-08-17T02:03:23.781Z,7.98
2022-08-17T02:04:23.776Z,8.32
2022-08-17T02:06:28.233Z,8.14
2022-08-17T02:07:26.912Z,7.64
2022-08-17T02:08:32.516Z,8.47
2022-08-17T02:09:25.938Z,7.83
2022-08-17T02:10:23.811Z,7.81
2022-08-17T02:11:23.826Z,8.38
2022-08-17T02:12:39.206Z,7.88
2022-08-17T02:13:23.829Z,7.55
2022-08-17T02:14:23.791Z,7.81
2022-08-17T02:15:23.806Z,8.16
2022-08-17T02:16:23.801Z,7.58
2022-08-17T02:17:26.053Z,8.12
2022-08-17T02:18:23.803Z,7.81
2022-08-17T02:19:23.832Z,8.15
2022-08-17T02:20:42.502Z,9.04
2022-08-17T02:21:23.797Z,9.15
2022-08-17T02:22:23.807Z,9.37
2022-08-17T02:23:23.811Z,8.93
2022-08-17T02:25:01.151Z,8.60
2022-08-17T02:25:23.805Z,9.47
2022-08-17T02:26:25.806Z,9.17
2022-08-17T02:27:23.826Z,9.06
2022-08-17T02:28:23.840Z,9.18
2022-08-17T02:29:23.841Z,9.38
2022-08-17T02:30:59.600Z,9.01
2022-08-17T02:31:23.827Z,9.45
2022-08-17T02:32:27.161Z,8.86
2022-08-17T02:33:23.882Z,9.25
2022-08-17T02:34:23.859Z,9.32
2022-08-17T02:35:23.852Z,9.52
2022-08-17T02:36:27.309Z,9.03
2022-08-17T02:37:23.848Z,9.38
2022-08-17T02:38:23.862Z,8.63
2022-08-17T02:39:24.056Z,8.90
2022-08-17T02:40:36.047Z,7.73
2022-08-17T02:41:23.863Z,8.19
2022-08-17T02:42:23.901Z,8.42
2022-08-17T02:43:23.897Z,8.11
2022-08-17T02:44:35.504Z,8.21
2022-08-17T02:45:23.876Z,9.28
2022-08-17T02:46:23.898Z,7.77
2022-08-17T02:47:23.904Z,9.13
2022-08-17T02:48:31.043Z,8.02
2022-08-17T02:49:23.897Z,7.18
2022-08-17T02:50:23.886Z,8.21
2022-08-17T02:51:23.879Z,8.66
2022-08-17T02:52:42.959Z,7.32
2022-08-17T02:53:23.884Z,7.19
2022-08-17T02:54:40.687Z,7.12
2022-08-17T02:55:23.889Z,7.45
2022-08-17T02:56:23.916Z,7.66
2022-08-17T02:57:23.903Z,7.44
2022-08-17T02:58:35.578Z,7.77
2022-08-17T03:02:23.923Z,7.38
2022-08-17T03:03:23.917Z,7.82
2022-08-17T03:05:23.936Z,7.43
2022-08-17T03:06:23.918Z,7.78
2022-08-17T03:07:23.933Z,8.02
2022-08-17T03:08:23.926Z,7.96
2022-08-17T03:09:23.935Z,8.19
2022-08-17T03:10:23.952Z,8.56
2022-08-17T03:11:23.954Z,7.80
2022-08-17T03:12:23.954Z,8.15
2022-08-17T03:13:23.937Z,8.76
2022-08-17T03:14:26.108Z,8.10
2022-08-17T03:15:23.957Z,8.23
2022-08-17T03:16:23.949Z,8.09
2022-08-17T03:17:24.003Z,8.08
2022-08-17T03:18:24.896Z,8.37
2022-08-17T03:19:23.962Z,7.88
2022-08-17T03:20:23.969Z,8.29
2022-08-17T03:21:23.972Z,8.32
2022-08-17T03:22:36.385Z,8.63
2022-08-17T03:23:25.581Z,8.28
2022-08-17T03:24:28.670Z,8.89
2022-08-17T03:25:23.999Z,8.09
2022-08-17T03:26:23.988Z,8.36
2022-08-17T03:27:23.994Z,8.53
2022-08-17T03:28:24.010Z,8.58
2022-08-17T03:29:23.989Z,8.44
2022-08-17T03:30:23.993Z,7.40
2022-08-17T03:31:26.388Z,8.16
2022-08-17T03:32:24.003Z,8.60
2022-08-17T03:33:23.999Z,7.89
2022-08-17T03:34:24.066Z,7.88
2022-08-17T03:35:24.034Z,8.49
2022-08-17T03:36:23.993Z,7.76
2022-08-17T03:37:24.033Z,8.09
2022-08-17T03:39:24.138Z,8.01
2022-08-17T03:40:55.890Z,9.10
2022-08-17T03:41:24.008Z,8.35
2022-08-17T03:42:31.792Z,8.03
2022-08-17T03:43:24.065Z,8.33
2022-08-17T03:44:24.033Z,7.80
2022-08-17T03:45:24.031Z,8.09
2022-08-17T03:47:24.046Z,7.72
2022-08-17T03:48:24.092Z,7.20
2022-08-17T03:50:24.063Z,7.85
2022-08-17T03:51:24.065Z,8.20
2022-08-17T03:52:24.074Z,8.18
2022-08-17T03:53:24.051Z,7.62
2022-08-17T03:54:24.047Z,8.38
2022-08-17T03:56:24.079Z,8.38
2022-08-17T03:57:24.085Z,8.72
2022-08-17T03:58:24.064Z,8.54
2022-08-17T04:00:24.061Z,7.97
2022-08-17T04:01:24.089Z,8.81
2022-08-17T04:02:24.080Z,7.99
2022-08-17T04:03:24.088Z,8.57
2022-08-17T04:04:27.589Z,8.31
2022-08-17T04:05:24.093Z,8.27
2022-08-17T04:06:24.127Z,8.67
2022-08-17T04:07:24.107Z,7.55
2022-08-17T04:08:26.550Z,7.77
2022-08-17T04:09:24.102Z,7.62
2022-08-17T04:10:26.380Z,8.45
2022-08-17T04:11:24.109Z,8.19
2022-08-17T04:12:24.099Z,7.49
2022-08-17T04:13:25.488Z,7.85
2022-08-17T04:14:24.099Z,8.85
2022-08-17T04:15:24.101Z,8.58
2022-08-17T04:17:24.256Z,8.17
2022-08-17T04:18:24.136Z,8.49
2022-08-17T04:19:24.168Z,8.00
2022-08-17T04:21:24.118Z,7.98
2022-08-17T04:22:31.794Z,8.33
2022-08-17T04:23:24.121Z,8.79
2022-08-17T04:24:24.177Z,8.29
2022-08-17T04:26:53.441Z,8.30
2022-08-17T04:27:24.162Z,8.87
2022-08-17T04:28:24.139Z,7.96
2022-08-17T04:29:24.142Z,7.98
2022-08-17T04:30:24.137Z,7.37
2022-08-17T04:31:24.147Z,7.76
2022-08-17T04:33:03.925Z,8.01
2022-08-17T04:33:24.179Z,8.66
2022-08-17T04:35:24.167Z,7.69
2022-08-17T04:36:24.181Z,7.26
2022-08-17T04:37:24.180Z,7.56
2022-08-17T04:38:24.190Z,8.11
2022-08-17T04:39:24.235Z,7.91
2022-08-17T04:40:26.050Z,7.56
2022-08-17T04:41:24.175Z,7.66
2022-08-17T04:42:24.189Z,7.84
2022-08-17T04:45:26.751Z,7.66
2022-08-17T04:46:24.203Z,7.95
2022-08-17T04:49:24.186Z,8.39
2022-08-17T04:50:24.199Z,8.04
2022-08-17T04:51:24.214Z,8.95
2022-08-17T04:53:24.199Z,8.02
2022-08-17T04:54:24.219Z,8.43
2022-08-17T04:56:24.242Z,8.15
2022-08-17T04:58:24.233Z,8.08
2022-08-17T04:59:24.248Z,8.58
2022-08-17T05:00:24.248Z,8.02
2022-08-17T05:01:24.703Z,7.83
2022-08-17T05:02:24.244Z,8.37
2022-08-17T05:03:24.250Z,8.73
2022-08-17T05:04:33.857Z,8.75
2022-08-17T05:05:24.239Z,8.49
2022-08-17T05:06:24.278Z,7.36
2022-08-17T05:07:28.338Z,8.01
2022-08-17T05:08:24.261Z,8.45
2022-08-17T05:09:24.416Z,8.71
2022-08-17T05:10:24.269Z,8.02
2022-08-17T05:11:24.279Z,8.09
2022-08-17T05:12:24.286Z,7.78
2022-08-17T05:13:24.267Z,8.58
2022-08-17T05:14:32.744Z,8.04
2022-08-17T05:15:24.265Z,8.51
2022-08-17T05:16:24.277Z,8.16
2022-08-17T05:17:24.268Z,7.91
2022-08-17T05:18:24.572Z,8.06
2022-08-17T05:20:24.304Z,7.86
2022-08-17T05:21:24.285Z,7.70
2022-08-17T05:22:26.918Z,8.46
2022-08-17T05:23:24.274Z,8.10
2022-08-17T05:25:25.558Z,9.27
2022-08-17T05:26:26.781Z,8.69
2022-08-17T05:27:24.291Z,8.67
2022-08-17T05:28:27.402Z,7.78
2022-08-17T05:29:34.305Z,8.83
2022-08-17T05:30:24.305Z,7.32
2022-08-17T05:31:24.295Z,8.31
2022-08-17T05:32:38.771Z,7.79
2022-08-17T05:33:24.322Z,8.30
2022-08-17T05:34:24.308Z,8.40
2022-08-17T05:35:24.322Z,7.84
2022-08-17T05:36:42.949Z,7.25
2022-08-17T05:37:24.319Z,7.98
2022-08-17T05:38:24.325Z,7.43
2022-08-17T05:39:24.358Z,8.06
2022-08-17T05:40:24.328Z,8.26
2022-08-17T05:41:24.324Z,7.71
2022-08-17T05:42:24.337Z,8.01
2022-08-17T05:43:24.341Z,8.40
2022-08-17T05:44:24.335Z,7.63
2022-08-17T05:46:24.397Z,8.83
2022-08-17T05:47:24.363Z,9.36
2022-08-17T05:48:39.116Z,8.85
2022-08-17T05:49:24.339Z,8.38
2022-08-17T05:50:27.093Z,7.95
2022-08-17T05:51:24.364Z,8.30
2022-08-17T05:52:24.401Z,8.19
2022-08-17T05:53:24.383Z,8.83
2022-08-17T05:54:24.375Z,8.54
2022-08-17T05:55:24.382Z,8.64
2022-08-17T05:56:29.999Z,8.32
2022-08-17T05:57:24.403Z,7.99
2022-08-17T05:58:24.401Z,9.22
2022-08-17T05:59:27.081Z,8.77
2022-08-17T06:00:30.304Z,9.23
2022-08-17T06:01:24.518Z,9.20
2022-08-17T06:02:24.405Z,8.70
2022-08-17T06:03:24.427Z,7.13
2022-08-17T06:04:24.408Z,8.31
2022-08-17T06:05:24.403Z,8.45
2022-08-17T06:06:25.299Z,7.93
2022-08-17T06:07:24.432Z,8.55
2022-08-17T06:08:24.428Z,8.16
2022-08-17T06:09:28.826Z,7.70
2022-08-17T06:10:25.762Z,7.28
2022-08-17T06:11:24.435Z,8.06
2022-08-17T06:12:24.449Z,8.72
2022-08-17T06:13:24.420Z,8.06
2022-08-17T06:14:24.460Z,8.19
2022-08-17T06:15:24.436Z,8.47
2022-08-17T06:16:33.177Z,8.11
2022-08-17T06:17:24.435Z,8.65
2022-08-17T06:18:24.432Z,8.14
2022-08-17T06:19:24.447Z,9.66
2022-08-17T06:21:26.277Z,8.06
2022-08-17T06:22:24.469Z,8.92
2022-08-17T06:23:24.460Z,8.04
2022-08-17T06:24:24.463Z,8.78
2022-08-17T06:25:24.454Z,8.17
2022-08-17T06:26:27.608Z,8.74
2022-08-17T06:27:24.536Z,9.02
2022-08-17T06:28:24.481Z,8.53
2022-08-17T06:29:24.482Z,9.19
2022-08-17T06:30:24.473Z,8.41
2022-08-17T06:31:24.479Z,8.32
2022-08-17T06:32:24.497Z,8.33
2022-08-17T06:33:24.473Z,8.24
2022-08-17T06:34:24.497Z,9.34
2022-08-17T06:35:27.722Z,8.74
2022-08-17T06:36:27.264Z,7.63
2022-08-17T06:37:24.488Z,9.40
2022-08-17T06:38:38.458Z,8.70
2022-08-17T06:39:24.621Z,9.40
2022-08-17T06:40:24.542Z,8.47
2022-08-17T06:41:24.505Z,8.78
2022-08-17T06:43:02.928Z,7.93
2022-08-17T06:43:24.505Z,8.58
2022-08-17T06:44:43.631Z,8.29
2022-08-17T06:45:24.543Z,8.12
2022-08-17T06:46:24.524Z,8.13
2022-08-17T06:47:28.370Z,8.60
2022-08-17T06:48:24.519Z,8.83
2022-08-17T06:49:24.540Z,9.43
2022-08-17T06:50:24.533Z,8.15
2022-08-17T06:51:24.534Z,8.07
2022-08-17T06:52:42.463Z,7.73
2022-08-17T06:53:24.539Z,8.88
2022-08-17T06:54:24.537Z,8.40
2022-08-17T06:55:24.543Z,7.99
2022-08-17T06:56:24.688Z,8.84
2022-08-17T06:57:24.545Z,9.12
2022-08-17T06:58:24.548Z,7.55
2022-08-17T06:59:24.550Z,8.72
2022-08-17T07:00:24.538Z,8.72
2022-08-17T07:01:24.591Z,7.95
2022-08-17T07:02:29.346Z,7.84
2022-08-17T07:03:24.564Z,8.30
2022-08-17T07:04:24.553Z,8.18
2022-08-17T07:05:24.613Z,8.60
2022-08-17T07:06:24.603Z,8.44
2022-08-17T07:07:24.574Z,7.78
2022-08-17T07:08:29.984Z,7.71
2022-08-17T07:09:24.583Z,7.41
2022-08-17T07:10:24.653Z,8.55
2022-08-17T07:11:24.588Z,8.46
2022-08-17T07:12:24.677Z,7.08
2022-08-17T07:13:27.443Z,8.11
2022-08-17T07:14:24.593Z,7.57
2022-08-17T07:15:24.586Z,8.95
2022-08-17T07:16:24.586Z,8.34
2022-08-17T07:17:46.684Z,8.08
2022-08-17T07:18:24.606Z,8.37
2022-08-17T07:19:24.598Z,8.34
2022-08-17T07:20:24.658Z,8.57
2022-08-17T07:21:26.558Z,7.04
2022-08-17T07:22:24.698Z,7.97
2022-08-17T07:23:24.621Z,7.50
2022-08-17T07:24:26.050Z,7.26
2022-08-17T07:25:24.643Z,6.98
2022-08-17T07:26:24.628Z,7.03
2022-08-17T07:27:24.629Z,7.80
2022-08-17T07:28:24.616Z,7.40
2022-08-17T07:29:24.639Z,7.47
2022-08-17T07:30:24.656Z,6.84
2022-08-17T07:31:24.626Z,7.00
2022-08-17T07:32:24.636Z,7.39
2022-08-17T07:33:24.630Z,7.07
2022-08-17T07:34:24.627Z,6.82
2022-08-17T07:35:24.633Z,7.07
2022-08-17T07:36:29.590Z,7.85
2022-08-17T07:37:24.641Z,7.00
2022-08-17T07:38:26.799Z,7.85
2022-08-17T07:40:24.773Z,8.44
2022-08-17T07:41:24.659Z,7.68
2022-08-17T07:42:24.667Z,8.13
2022-08-17T07:43:24.672Z,7.49
2022-08-17T07:44:24.679Z,8.07
2022-08-17T07:45:24.679Z,8.10
2022-08-17T07:46:24.704Z,8.35
2022-08-17T07:47:24.665Z,7.15
2022-08-17T07:48:24.668Z,7.62
2022-08-17T07:49:24.704Z,7.31
2022-08-17T07:50:27.718Z,6.75
2022-08-17T07:51:24.667Z,7.60
2022-08-17T07:52:48.423Z,8.60
2022-08-17T07:53:24.687Z,7.75
2022-08-17T07:54:24.711Z,7.26
2022-08-17T07:55:24.714Z,7.56
2022-08-17T07:56:24.698Z,7.74
2022-08-17T07:57:29.799Z,8.17
2022-08-17T07:58:24.699Z,8.10
2022-08-17T07:59:24.705Z,7.64
2022-08-17T08:00:32.161Z,7.73
2022-08-17T08:01:24.746Z,7.41
2022-08-17T08:02:26.456Z,7.65
2022-08-17T08:03:26.204Z,7.55
2022-08-17T08:04:37.570Z,7.13
2022-08-17T08:05:49.483Z,6.31
2022-08-17T08:06:24.711Z,6.85
2022-08-17T08:07:24.735Z,6.59
2022-08-17T08:08:24.790Z,7.37
2022-08-17T08:09:24.734Z,6.80
2022-08-17T08:10:24.730Z,6.78
2022-08-17T08:11:24.722Z,6.55
2022-08-17T08:12:24.737Z,7.36
2022-08-17T08:13:24.755Z,7.08
2022-08-17T08:14:28.715Z,6.49
2022-08-17T08:15:24.746Z,6.83
2022-08-17T08:16:24.750Z,6.81
2022-08-17T08:17:24.764Z,7.10
2022-08-17T08:18:54.916Z,7.03
2022-08-17T08:19:24.760Z,6.32
2022-08-17T08:20:51.380Z,6.57
2022-08-17T08:21:24.756Z,7.18
2022-08-17T08:22:24.776Z,6.92
2022-08-17T08:23:24.766Z,6.76
2022-08-17T08:24:24.785Z,6.59
2022-08-17T08:25:24.776Z,6.92
2022-08-17T08:26:24.779Z,6.83
2022-08-17T08:27:27.816Z,6.95
2022-08-17T08:28:24.786Z,7.23
2022-08-17T08:29:24.783Z,7.16
2022-08-17T08:30:24.784Z,6.73
2022-08-17T08:31:24.791Z,7.35
2022-08-17T08:32:24.791Z,7.46
2022-08-17T08:33:24.810Z,7.28
2022-08-17T08:35:24.785Z,6.58
2022-08-17T08:37:15.845Z,7.10
2022-08-17T08:37:33.727Z,7.40
2022-08-17T08:38:24.822Z,6.96
2022-08-17T08:39:24.866Z,7.36
2022-08-17T08:40:24.828Z,7.27
2022-08-17T08:41:24.815Z,6.96
2022-08-17T08:42:24.841Z,6.97
2022-08-17T08:43:25.024Z,6.60
2022-08-17T08:45:00.853Z,6.57
2022-08-17T08:45:24.866Z,7.00
2022-08-17T08:46:24.835Z,6.88
2022-08-17T08:47:24.828Z,7.29
2022-08-17T08:48:52.977Z,7.33
2022-08-17T08:49:45.101Z,7.53
2022-08-17T08:50:37.541Z,7.34
2022-08-17T08:51:24.842Z,7.44
2022-08-17T08:52:24.850Z,7.13
2022-08-17T08:53:24.859Z,8.06
2022-08-17T08:54:26.602Z,7.34
2022-08-17T08:55:24.875Z,7.36
2022-08-17T08:56:24.862Z,7.41
2022-08-17T08:57:30.876Z,7.32
2022-08-17T08:58:31.908Z,7.49
2022-08-17T08:59:24.883Z,7.16
2022-08-17T09:00:24.863Z,6.19
2022-08-17T09:01:24.908Z,7.17
2022-08-17T09:02:24.904Z,7.78
2022-08-17T09:03:36.699Z,7.63
2022-08-17T09:04:28.038Z,8.09
2022-08-17T09:05:24.878Z,7.32
2022-08-17T09:06:32.107Z,7.28
2022-08-17T09:07:24.910Z,6.99
2022-08-17T09:08:24.881Z,6.79
2022-08-17T09:09:24.912Z,7.32
2022-08-17T09:10:24.895Z,7.00
2022-08-17T09:11:24.932Z,6.88
2022-08-17T09:12:24.913Z,6.77
2022-08-17T09:13:24.903Z,6.60
2022-08-17T09:14:28.696Z,6.14
2022-08-17T09:15:24.898Z,6.92
2022-08-17T09:16:24.921Z,7.00
2022-08-17T09:17:24.902Z,6.96
2022-08-17T09:19:02.576Z,6.67
2022-08-17T09:19:24.923Z,6.21
2022-08-17T09:20:28.205Z,6.90
2022-08-17T09:21:24.972Z,7.14
2022-08-17T09:22:24.948Z,6.55
2022-08-17T09:23:24.996Z,6.85
2022-08-17T09:24:24.937Z,6.37
2022-08-17T09:25:24.929Z,6.54
2022-08-17T09:26:24.919Z,6.29
2022-08-17T09:27:24.927Z,6.34
2022-08-17T09:29:24.958Z,6.47
2022-08-17T09:30:24.948Z,7.07
2022-08-17T09:31:26.817Z,6.67
2022-08-17T09:32:24.948Z,6.73
2022-08-17T09:33:24.948Z,6.48
2022-08-17T09:34:28.143Z,6.07
2022-08-17T09:35:24.948Z,6.23
2022-08-17T09:36:24.962Z,6.22
2022-08-17T09:37:24.963Z,6.26
2022-08-17T09:38:27.105Z,7.00
2022-08-17T09:40:24.967Z,6.56
2022-08-17T09:41:28.233Z,6.37
2022-08-17T09:42:24.959Z,6.04
2022-08-17T09:43:24.979Z,6.00
2022-08-17T09:44:24.988Z,5.66
2022-08-17T09:45:24.984Z,6.09
2022-08-17T09:46:24.987Z,6.44
2022-08-17T09:47:25.009Z,5.16
2022-08-17T09:48:24.995Z,6.34
2022-08-17T09:49:25.344Z,6.00
2022-08-17T09:51:04.200Z,5.72
2022-08-17T09:51:25.015Z,4.94
2022-08-17T09:52:24.990Z,6.44
2022-08-17T09:54:38.222Z,5.53
2022-08-17T09:55:25.029Z,5.49
2022-08-17T09:56:25.009Z,5.64
2022-08-17T09:57:30.671Z,6.02
2022-08-17T09:58:29.120Z,6.28
2022-08-17T09:59:25.035Z,6.23
2022-08-17T10:00:25.060Z,5.30
2022-08-17T10:01:25.077Z,5.95
2022-08-17T10:02:25.049Z,6.02
2022-08-17T10:03:25.019Z,6.12
2022-08-17T10:04:29.444Z,6.27
2022-08-17T10:05:25.061Z,5.47
2022-08-17T10:06:25.056Z,6.22
2022-08-17T10:07:25.054Z,5.49
2022-08-17T10:08:25.071Z,5.88
2022-08-17T10:09:25.054Z,6.41
2022-08-17T10:10:25.066Z,5.36
2022-08-17T10:11:33.400Z,6.06
2022-08-17T10:12:29.777Z,5.13
2022-08-17T10:13:25.062Z,6.09
2022-08-17T10:14:37.640Z,5.37
2022-08-17T10:15:25.062Z,6.17
2022-08-17T10:16:25.073Z,6.21
2022-08-17T10:17:25.063Z,5.46
2022-08-17T10:18:32.029Z,5.34
2022-08-17T10:19:25.073Z,5.20
2022-08-17T10:20:25.083Z,5.38
2022-08-17T10:21:25.073Z,6.01
2022-08-17T10:22:35.430Z,5.82
2022-08-17T10:23:25.082Z,5.14
2022-08-17T10:24:25.103Z,4.88
2022-08-17T10:25:37.550Z,5.12
2022-08-17T10:26:25.095Z,5.46
2022-08-17T10:27:25.093Z,4.92
2022-08-17T10:29:25.092Z,4.61
2022-08-17T10:30:25.131Z,4.43
2022-08-17T10:31:35.527Z,4.68
2022-08-17T10:32:25.103Z,5.09
2022-08-17T10:33:25.114Z,4.94
2022-08-17T10:34:25.117Z,4.96
2022-08-17T10:35:25.110Z,5.10
2022-08-17T10:36:25.138Z,4.70
2022-08-17T10:37:25.122Z,5.11
2022-08-17T10:38:25.133Z,5.24
2022-08-17T10:39:25.267Z,5.49
2022-08-17T10:40:26.489Z,4.74
2022-08-17T10:41:25.125Z,4.76
2022-08-17T10:42:32.681Z,4.89
2022-08-17T10:43:25.142Z,5.39
2022-08-17T10:44:39.682Z,4.75
2022-08-17T10:45:25.171Z,4.77
2022-08-17T10:46:30.546Z,4.98
2022-08-17T10:47:25.167Z,4.83
2022-08-17T10:48:18.480Z,4.83
2022-08-17T10:49:02.015Z,4.83
2022-08-17T10:50:01.977Z,5.18
2022-08-17T10:51:01.979Z,4.67
2022-08-17T10:52:01.968Z,4.65
2022-08-17T10:54:01.976Z,5.38
2022-08-17T10:55:01.978Z,4.53
2022-08-17T10:56:01.996Z,4.93
2022-08-17T10:57:02.010Z,4.82
2022-08-17T10:58:01.984Z,5.13
2022-08-17T10:59:02.004Z,4.56
2022-08-17T11:00:02.002Z,5.05
2022-08-17T11:01:02.164Z,5.27
2022-08-17T11:02:02.010Z,5.27
2022-08-17T11:03:02.009Z,5.51
2022-08-17T11:04:02.002Z,5.22
2022-08-17T11:05:02.005Z,5.10
2022-08-17T11:06:02.005Z,4.74
2022-08-17T11:07:02.023Z,5.45
2022-08-17T11:08:02.026Z,5.38
2022-08-17T11:10:02.013Z,4.72
2022-08-17T11:11:02.059Z,5.59
2022-08-17T11:12:02.037Z,5.59
2022-08-17T11:13:02.044Z,4.95
2022-08-17T11:14:02.034Z,4.96
2022-08-17T11:15:02.075Z,5.00
2022-08-17T11:16:07.706Z,5.17
2022-08-17T11:17:03.725Z,5.58
2022-08-17T11:18:02.036Z,6.13
2022-08-17T11:19:02.061Z,5.70
2022-08-17T11:20:02.072Z,5.23
2022-08-17T11:21:02.053Z,5.10
2022-08-17T11:22:02.085Z,5.60
2022-08-17T11:24:02.069Z,5.83
2022-08-17T11:25:02.075Z,5.21
2022-08-17T11:26:02.089Z,5.25
2022-08-17T11:27:02.072Z,5.61
2022-08-17T11:28:02.065Z,5.21
2022-08-17T11:29:02.085Z,5.41
2022-08-17T11:30:02.931Z,5.57
2022-08-17T11:31:02.091Z,5.55
2022-08-17T11:32:02.078Z,5.08
2022-08-17T11:33:02.102Z,6.25
2022-08-17T11:34:02.111Z,5.21
2022-08-17T11:35:02.118Z,5.85
2022-08-17T11:36:02.122Z,6.25
2022-08-17T11:37:02.091Z,5.53
2022-08-17T11:38:02.105Z,5.05
2022-08-17T11:39:02.113Z,5.70
2022-08-17T11:40:02.191Z,5.76
2022-08-17T11:41:02.128Z,5.35
2022-08-17T11:42:02.120Z,6.18
2022-08-17T11:43:02.132Z,5.73
2022-08-17T11:44:02.830Z,6.68
2022-08-17T11:45:02.134Z,6.11
2022-08-17T11:46:02.143Z,6.39
2022-08-17T11:47:02.137Z,6.27
2022-08-17T11:48:26.580Z,7.11
2022-08-17T11:49:02.126Z,5.86
2022-08-17T11:50:02.131Z,5.89
2022-08-17T11:51:02.162Z,6.18
2022-08-17T11:52:02.143Z,6.01
2022-08-17T11:53:02.145Z,6.56
2022-08-17T11:54:31.294Z,6.07
2022-08-17T11:55:24.159Z,5.74
2022-08-17T11:57:02.189Z,5.94
2022-08-17T11:58:02.152Z,6.46
2022-08-17T12:00:02.156Z,5.86
2022-08-17T12:01:02.158Z,4.83
2022-08-17T12:02:02.172Z,5.93
2022-08-17T12:03:02.177Z,5.27
2022-08-17T12:04:02.213Z,6.19
2022-08-17T12:05:02.223Z,5.32
2022-08-17T12:06:02.204Z,5.29
2022-08-17T12:07:02.201Z,6.33
2022-08-17T12:08:02.184Z,5.46
2022-08-17T12:09:02.213Z,6.76
2022-08-17T12:10:02.224Z,5.83
2022-08-17T12:11:02.247Z,5.67
2022-08-17T12:12:12.862Z,5.63
2022-08-17T12:13:02.221Z,5.68
2022-08-17T12:14:02.246Z,5.45
2022-08-17T12:15:11.480Z,6.13
2022-08-17T12:16:02.213Z,5.46
2022-08-17T12:17:02.223Z,5.91
2022-08-17T12:18:02.227Z,6.00
2022-08-17T12:19:02.284Z,5.88
2022-08-17T12:21:02.264Z,5.86
2022-08-17T12:22:02.230Z,4.81
2022-08-17T12:23:02.237Z,6.07
2022-08-17T12:24:02.240Z,6.09
2022-08-17T12:25:02.250Z,5.87
2022-08-17T12:26:02.247Z,5.75
2022-08-17T12:27:02.234Z,5.57
2022-08-17T12:28:05.136Z,5.19
2022-08-17T12:29:02.261Z,4.98
2022-08-17T12:30:02.244Z,5.69
2022-08-17T12:31:04.104Z,6.07
2022-08-17T12:32:02.260Z,5.59
2022-08-17T12:33:02.252Z,5.52
2022-08-17T12:34:02.255Z,6.12
2022-08-17T12:35:02.289Z,5.78
2022-08-17T12:36:02.283Z,5.92
2022-08-17T12:37:02.273Z,5.98
2022-08-17T12:38:02.267Z,5.59
2022-08-17T12:39:14.405Z,6.00
2022-08-17T12:40:02.300Z,6.21
2022-08-17T12:41:02.290Z,5.88
2022-08-17T12:42:02.867Z,5.30
2022-08-17T12:43:02.285Z,5.42
2022-08-17T12:44:02.549Z,5.92
2022-08-17T12:45:02.290Z,5.92
2022-08-17T12:46:13.330Z,5.43
2022-08-17T12:47:02.307Z,5.02
2022-08-17T12:49:02.306Z,5.91
2022-08-17T12:50:02.298Z,5.59
2022-08-17T12:51:02.302Z,6.00
2022-08-17T12:52:02.293Z,6.28
2022-08-17T12:53:02.780Z,6.09
2022-08-17T12:54:02.309Z,5.76
2022-08-17T12:55:02.326Z,6.57
2022-08-17T12:56:02.328Z,5.93
2022-08-17T12:57:02.315Z,5.59
2022-08-17T12:58:02.451Z,6.19
2022-08-17T12:59:02.489Z,5.50
2022-08-17T13:01:02.315Z,6.34
2022-08-17T13:02:02.425Z,5.72
2022-08-17T13:03:02.341Z,5.94
2022-08-17T13:04:02.369Z,5.83
2022-08-17T13:05:02.330Z,5.95
2022-08-17T13:06:02.339Z,5.43
2022-08-17T13:07:02.347Z,5.74
2022-08-17T13:08:04.299Z,6.44
2022-08-17T13:09:02.372Z,5.43
2022-08-17T13:10:02.369Z,6.04
2022-08-17T13:11:02.376Z,5.73
2022-08-17T13:12:02.366Z,6.43
2022-08-17T13:13:02.364Z,5.60
2022-08-17T13:14:02.371Z,6.27
2022-08-17T13:15:02.429Z,5.46
2022-08-17T13:16:02.378Z,5.90
2022-08-17T13:17:02.365Z,6.21
2022-08-17T13:18:02.394Z,5.54
2022-08-17T13:19:02.377Z,5.79
2022-08-17T13:20:02.372Z,6.16
2022-08-17T13:21:02.403Z,6.06
2022-08-17T13:22:04.222Z,6.09
2022-08-17T13:23:02.396Z,5.98
2022-08-17T13:24:02.397Z,6.12
2022-08-17T13:25:02.475Z,5.55
2022-08-17T13:26:02.396Z,5.59
2022-08-17T13:27:02.388Z,5.91
2022-08-17T13:28:02.391Z,5.43
2022-08-17T13:29:02.404Z,5.51
2022-08-17T13:30:02.417Z,5.49
2022-08-17T13:31:02.416Z,6.11
2022-08-17T13:32:04.980Z,5.92
2022-08-17T13:33:04.965Z,6.26
2022-08-17T13:34:02.419Z,6.22
2022-08-17T13:35:14.380Z,5.59
2022-08-17T13:36:02.422Z,5.96
2022-08-17T13:37:02.431Z,6.09
2022-08-17T13:38:02.435Z,5.30
2022-08-17T13:39:02.441Z,6.11
2022-08-17T13:40:02.619Z,6.24
2022-08-17T13:41:02.435Z,5.33
2022-08-17T13:42:02.463Z,5.89
2022-08-17T13:43:02.418Z,5.77
2022-08-17T13:44:02.433Z,5.91
2022-08-17T13:45:35.268Z,6.14
2022-08-17T13:46:02.448Z,6.00
2022-08-17T13:47:02.467Z,6.45
2022-08-17T13:48:02.460Z,6.15
2022-08-17T13:49:02.455Z,5.77
2022-08-17T13:50:02.502Z,6.24
2022-08-17T13:51:02.466Z,5.35
2022-08-17T13:52:02.473Z,6.19
2022-08-17T13:53:02.477Z,5.35
2022-08-17T13:54:02.485Z,5.78
2022-08-17T13:55:02.492Z,5.05
2022-08-17T13:56:02.469Z,5.97
2022-08-17T13:57:02.493Z,5.37
2022-08-17T13:58:06.868Z,5.69
2022-08-17T13:59:02.493Z,6.10
2022-08-17T14:00:02.491Z,6.54
2022-08-17T14:02:02.547Z,5.49
2022-08-17T14:03:02.505Z,5.74
2022-08-17T14:04:02.500Z,5.99
2022-08-17T14:06:02.560Z,5.39
2022-08-17T14:07:02.571Z,5.08
2022-08-17T14:08:06.443Z,5.58
2022-08-17T14:09:02.507Z,5.64
2022-08-17T14:10:02.519Z,5.92
2022-08-17T14:11:02.507Z,5.79
2022-08-17T14:12:02.540Z,5.85
2022-08-17T14:13:02.544Z,5.99
2022-08-17T14:14:02.515Z,6.02